createdAt,value
2023-01-25T00:03:02.322Z,17.23
2023-01-25T00:18:04.858Z,17.23
2023-01-25T00:33:37.525Z,17.87
2023-01-25T00:48:40.019Z,19.20
2023-01-25T01:03:42.388Z,19.27
2023-01-25T01:18:45.819Z,19.77
2023-01-25T01:33:53.954Z,19.13
2023-01-25T01:48:57.424Z,18.23
2023-01-25T02:04:02.882Z,20.43
2023-01-25T02:19:07.399Z,19.33
2023-01-25T02:34:10.045Z,21.37
2023-01-25T02:49:16.796Z,19.37
2023-01-25T03:04:19.421Z,21.17
2023-01-25T03:19:23.483Z,18.73
2023-01-25T03:34:26.019Z,19.70
2023-01-25T03:49:29.151Z,20.67
2023-01-25T04:04:31.782Z,20.40
2023-01-25T04:19:34.411Z,19.60
2023-01-25T04:34:38.762Z,19.07
2023-01-25T04:49:45.563Z,19.87
2023-01-25T05:04:50.392Z,20.07
2023-01-25T05:19:55.550Z,20.43
2023-01-25T05:35:00.841Z,23.27
2023-01-25T05:50:04.348Z,22.37
2023-01-25T06:05:21.690Z,25.10
2023-01-25T06:20:26.113Z,23.43
2023-01-25T06:35:40.519Z,22.57
2023-01-25T06:50:42.858Z,19.43
2023-01-25T07:05:46.187Z,22.50
2023-01-25T07:20:50.547Z,18.70
2023-01-25T07:35:53.000Z,21.80
2023-01-25T07:51:11.748Z,20.83
2023-01-25T08:06:14.288Z,21.07
2023-01-25T08:21:16.767Z,27.97
2023-01-25T08:36:20.956Z,23.43
2023-01-25T08:51:24.320Z,26.80
2023-01-25T09:06:26.746Z,24.73
2023-01-25T09:21:30.057Z,22.40
2023-01-25T09:36:32.415Z,22.43
2023-01-25T09:52:09.515Z,24.73
2023-01-25T10:07:27.413Z,20.53
2023-01-25T10:22:36.560Z,20.53
2023-01-25T10:37:39.223Z,20.40
2023-01-25T10:52:59.766Z,19.13
2023-01-25T11:08:25.684Z,18.77
2023-01-25T11:23:28.130Z,20.00
2023-01-25T11:38:30.979Z,15.70
2023-01-25T11:54:19.518Z,16.23
2023-01-25T12:09:37.152Z,16.37
2023-01-25T12:25:07.468Z,17.80
2023-01-25T12:40:15.384Z,14.27
2023-01-25T12:55:18.466Z,16.40
2023-01-25T13:10:27.098Z,16.27
2023-01-25T13:25:29.627Z,15.67
2023-01-25T13:40:39.645Z,17.13
2023-01-25T13:55:46.309Z,18.63
2023-01-25T14:10:49.996Z,20.33
2023-01-25T14:25:54.015Z,15.73
2023-01-25T14:41:20.216Z,17.27
2023-01-25T14:56:26.705Z,18.27
2023-01-25T15:11:48.974Z,19.10
2023-01-25T15:26:53.251Z,20.00
2023-01-25T15:41:55.833Z,21.37
2023-01-25T15:56:59.333Z,22.17
2023-01-25T16:12:02.305Z,21.83
2023-01-25T16:27:04.585Z,24.63
2023-01-25T16:42:08.894Z,25.87
2023-01-25T16:57:20.384Z,24.23
2023-01-25T17:12:23.098Z,20.07
2023-01-25T17:27:25.678Z,23.00
2023-01-25T17:42:28.149Z,22.40
2023-01-25T17:57:31.531Z,24.13
2023-01-25T18:12:34.067Z,23.53
2023-01-25T18:27:36.578Z,24.03
2023-01-25T18:42:39.411Z,27.03
2023-01-25T18:57:41.659Z,24.87
2023-01-25T19:12:44.258Z,23.63
2023-01-25T19:27:46.909Z,25.70
2023-01-25T19:42:49.426Z,24.63
2023-01-25T19:57:51.943Z,23.77
2023-01-25T20:12:54.562Z,22.23
2023-01-25T20:27:57.399Z,21.73
2023-01-25T20:42:59.755Z,21.43
2023-01-25T20:58:02.183Z,22.47
2023-01-25T21:13:04.767Z,22.10
2023-01-25T21:28:07.384Z,21.17
2023-01-25T21:43:11.596Z,22.47
2023-01-25T21:58:14.312Z,21.43
2023-01-25T22:13:16.686Z,24.90
2023-01-25T22:28:19.730Z,21.30
2023-01-25T22:43:22.144Z,18.67
2023-01-25T22:58:24.735Z,19.17
2023-01-25T23:13:27.514Z,21.50
2023-01-25T23:28:30.840Z,20.97
2023-01-25T23:43:33.477Z,21.43
2023-01-25T23:58:37.445Z,23.00
